Time;durP1;ratioP1;P1;durP2;ratioP2;P2;SDS_P1;SDS_P2;PMS_P1;PMS_P2;Temp;Humidity;BMP_temperature;BMP_pressure;BME280_temperature;BME280_humidity;BME280_pressure;Samples;Min_cycle;Max_cycle;Signal;HPM_P1;HPM_P2
2022/01/30 00:00:23;;;;;;;99.57;46.78;;;;;;;;;;5093695;28;20111;-51
2022/01/30 00:02:51;;;;;;;123.13;57.40;;;;;;;;;;5093304;28;20484;-53
2022/01/30 00:05:18;;;;;;;118.68;55.55;;;;;;;;;;5088431;28;20107;-54
2022/01/30 00:07:44;;;;;;;247.90;116.47;;;;;;;;;;5073420;28;20016;-55
2022/01/30 00:10:13;;;;;;;200.75;93.15;;;;;;;;;;5075495;28;20020;-52
2022/01/30 00:12:53;;;;;;;202.77;96.40;;;;;;;;;;5082719;28;20028;-56
2022/01/30 00:15:28;;;;;;;247.75;115.85;;;;;;;;;;5073197;28;20103;-54
2022/01/30 00:18:08;;;;;;;280.30;132.25;;;;;;;;;;5084650;28;20599;-55
2022/01/30 00:20:35;;;;;;;364.83;178.00;;;;;;;;;;5073323;28;20036;-55
2022/01/30 00:23:17;;;;;;;371.60;179.73;;;;;;;;;;5072988;28;20057;-53
2022/01/30 00:25:50;;;;;;;375.90;180.02;;;;;;;;;;5073483;28;20035;-50
2022/01/30 00:28:19;;;;;;;339.25;161.43;;;;;;;;;;5073016;28;20070;-53
2022/01/30 00:30:45;;;;;;;291.15;137.73;;;;;;;;;;5072771;28;20025;-53
2022/01/30 00:33:12;;;;;;;254.02;121.95;;;;;;;;;;5073107;28;20461;-55
2022/01/30 00:35:38;;;;;;;251.30;115.03;;;;;;;;;;5073219;28;20039;-53
2022/01/30 00:38:06;;;;;;;237.80;113.00;;;;;;;;;;5093587;28;20063;-55
2022/01/30 00:40:32;;;;;;;221.02;105.80;;;;;;;;;;5082745;28;20029;-54
2022/01/30 00:42:59;;;;;;;210.98;98.88;;;;;;;;;;5073027;28;20116;-55
2022/01/30 00:45:25;;;;;;;187.07;86.50;;;;;;;;;;5077066;28;20016;-51
2022/01/30 00:47:51;;;;;;;160.98;78.25;;;;;;;;;;5092281;28;20024;-56
2022/01/30 00:50:17;;;;;;;165.25;80.00;;;;;;;;;;5095211;28;20030;-51
2022/01/30 00:52:49;;;;;;;197.25;92.05;;;;;;;;;;5097560;28;20034;-51
2022/01/30 00:55:16;;;;;;;213.60;96.72;;;;;;;;;;5089419;28;20020;-57
2022/01/30 00:57:42;;;;;;;221.68;104.93;;;;;;;;;;5079235;28;20039;-56
2022/01/30 01:00:08;;;;;;;229.10;107.63;;;;;;;;;;5077049;28;20055;-52
2022/01/30 01:02:34;;;;;;;234.48;109.85;;;;;;;;;;5077107;28;20044;-55
2022/01/30 01:05:04;;;;;;;236.88;114.63;;;;;;;;;;5093344;28;20078;-55
2022/01/30 01:07:32;;;;;;;254.18;117.88;;;;;;;;;;5092142;28;20495;-53
2022/01/30 01:10:06;;;;;;;259.13;121.68;;;;;;;;;;5095550;28;20032;-49
2022/01/30 01:25:51;;;;;;;240.82;111.00;;;;;;;;;;5090105;28;20045;-55
2022/01/30 01:28:17;;;;;;;230.50;105.78;;;;;;;;;;5096908;28;20623;-54
2022/01/30 01:30:43;;;;;;;232.38;108.95;;;;;;;;;;5096800;28;20020;-51
2022/01/30 01:33:09;;;;;;;267.20;124.93;;;;;;;;;;5093558;28;20029;-56
2022/01/30 01:35:35;;;;;;;261.02;121.95;;;;;;;;;;5076375;28;20064;-54
2022/01/30 01:38:03;;;;;;;262.83;125.35;;;;;;;;;;5076569;28;20021;-55
2022/01/30 01:40:30;;;;;;;249.48;115.65;;;;;;;;;;5076262;28;20024;-56
2022/01/30 01:43:00;;;;;;;249.05;117.22;;;;;;;;;;5076290;28;20063;-48
2022/01/30 01:45:33;;;;;;;247.70;114.88;;;;;;;;;;5075698;28;20028;-54
2022/01/30 01:48:02;;;;;;;246.02;116.75;;;;;;;;;;5076276;28;20025;-54
2022/01/30 01:50:43;;;;;;;214.75;101.68;;;;;;;;;;5076119;28;20029;-54
2022/01/30 01:53:10;;;;;;;221.30;101.97;;;;;;;;;;5075987;28;20063;-52
2022/01/30 01:55:37;;;;;;;191.52;86.63;;;;;;;;;;5075613;28;20036;-53
2022/01/30 01:58:04;;;;;;;189.40;86.72;;;;;;;;;;5076140;28;20025;-53
2022/01/30 02:00:31;;;;;;;143.55;64.25;;;;;;;;;;5075722;28;20051;-52
2022/01/30 02:02:57;;;;;;;170.52;77.63;;;;;;;;;;5075970;28;20035;-57
2022/01/30 02:05:26;;;;;;;242.07;115.68;;;;;;;;;;5080744;28;20047;-49
2022/01/30 02:10:55;;;;;;;246.88;113.13;;;;;;;;;;5095688;28;20585;-52
2022/01/30 02:24:31;;;;;;;229.20;105.90;;;;;;;;;;5075299;28;20416;-56
2022/01/30 02:26:57;;;;;;;206.65;99.47;;;;;;;;;;5075239;28;20240;-50
2022/01/30 02:29:23;;;;;;;182.93;86.43;;;;;;;;;;5075335;28;20021;-55
2022/01/30 02:31:50;;;;;;;163.00;78.07;;;;;;;;;;5074855;28;20112;-53
2022/01/30 02:34:16;;;;;;;142.20;69.28;;;;;;;;;;5075090;28;20039;-53
2022/01/30 02:36:45;;;;;;;133.55;59.58;;;;;;;;;;5093268;28;20020;-53
2022/01/30 02:39:11;;;;;;;120.32;58.95;;;;;;;;;;5095369;28;20439;-51
2022/01/30 02:41:41;;;;;;;175.80;76.07;;;;;;;;;;5094992;28;20104;-53
2022/01/30 02:44:33;;;;;;;138.70;66.15;;;;;;;;;;5095294;28;20036;-52
2022/01/30 02:47:01;;;;;;;151.95;68.20;;;;;;;;;;5094538;28;20028;-54
2022/01/30 02:49:44;;;;;;;119.07;53.00;;;;;;;;;;5095043;28;20127;-54
2022/01/30 02:52:12;;;;;;;150.82;71.65;;;;;;;;;;5095212;28;20245;-51
2022/01/30 02:54:38;;;;;;;178.68;81.30;;;;;;;;;;5094826;28;20388;-53
2022/01/30 02:57:04;;;;;;;177.63;83.93;;;;;;;;;;5094928;28;20380;-54
2022/01/30 02:59:31;;;;;;;154.52;75.78;;;;;;;;;;5095136;28;20051;-56
2022/01/30 03:01:57;;;;;;;162.23;75.85;;;;;;;;;;5093931;28;20020;-51
2022/01/30 03:04:23;;;;;;;135.15;62.10;;;;;;;;;;5094985;28;20028;-53
2022/01/30 03:06:49;;;;;;;101.75;48.50;;;;;;;;;;5093890;28;20543;-55
2022/01/30 03:09:15;;;;;;;107.47;48.88;;;;;;;;;;5094623;28;20034;-53
2022/01/30 03:11:41;;;;;;;96.13;45.20;;;;;;;;;;5094968;28;20045;-51
2022/01/30 03:14:07;;;;;;;69.38;35.42;;;;;;;;;;5094375;28;20390;-54
2022/01/30 03:16:34;;;;;;;52.42;27.17;;;;;;;;;;5094578;28;20425;-52
2022/01/30 03:19:01;;;;;;;51.92;25.35;;;;;;;;;;5094790;28;20076;-54
2022/01/30 03:21:27;;;;;;;44.25;23.33;;;;;;;;;;5094636;28;20032;-52
2022/01/30 03:23:54;;;;;;;69.75;30.38;;;;;;;;;;5094381;28;20032;-57
2022/01/30 03:26:20;;;;;;;44.17;22.42;;;;;;;;;;5094974;28;20031;-52
2022/01/30 03:28:48;;;;;;;49.47;23.88;;;;;;;;;;5094337;28;20028;-56
2022/01/30 03:31:17;;;;;;;63.80;31.77;;;;;;;;;;5094080;28;20059;-58
2022/01/30 03:33:43;;;;;;;56.42;29.20;;;;;;;;;;5094422;28;20487;-55
2022/01/30 03:36:10;;;;;;;93.30;45.42;;;;;;;;;;5094394;28;20024;-53
2022/01/30 03:38:36;;;;;;;63.75;32.63;;;;;;;;;;5094067;28;20104;-53
2022/01/30 03:41:02;;;;;;;99.65;36.95;;;;;;;;;;5094406;28;20098;-56
2022/01/30 03:43:28;;;;;;;43.83;22.30;;;;;;;;;;5094299;28;20084;-56
2022/01/30 03:45:54;;;;;;;42.58;22.25;;;;;;;;;;5074215;28;20075;-57
2022/01/30 03:48:20;;;;;;;98.93;55.85;;;;;;;;;;5073989;28;20024;-56
2022/01/30 03:50:46;;;;;;;80.82;42.08;;;;;;;;;;5073988;28;20036;-52
2022/01/30 03:53:13;;;;;;;41.47;20.42;;;;;;;;;;5074133;28;20553;-51
2022/01/30 03:55:39;;;;;;;43.45;19.13;;;;;;;;;;5073652;28;20025;-51
2022/01/30 03:58:07;;;;;;;36.97;18.73;;;;;;;;;;5073367;28;20543;-50
2022/01/30 04:00:33;;;;;;;39.83;19.42;;;;;;;;;;5073792;28;20025;-49
2022/01/30 04:02:59;;;;;;;36.67;21.13;;;;;;;;;;5073452;28;20566;-55
2022/01/30 04:05:26;;;;;;;67.22;33.78;;;;;;;;;;5073657;28;20032;-52
2022/01/30 04:07:52;;;;;;;76.65;38.15;;;;;;;;;;5073717;28;20460;-51
2022/01/30 04:10:18;;;;;;;53.08;25.02;;;;;;;;;;5081831;28;20055;-51
2022/01/30 04:12:45;;;;;;;67.07;34.63;;;;;;;;;;5093392;28;20527;-53
2022/01/30 04:15:11;;;;;;;49.70;26.67;;;;;;;;;;5093929;28;20073;-51
2022/01/30 04:17:37;;;;;;;104.45;41.45;;;;;;;;;;5093315;28;20028;-54
2022/01/30 04:20:04;;;;;;;131.25;49.03;;;;;;;;;;5093254;28;20023;-53
2022/01/30 04:22:30;;;;;;;62.95;30.45;;;;;;;;;;5093217;28;20048;-51
2022/01/30 04:24:56;;;;;;;119.35;41.88;;;;;;;;;;5093656;28;20038;-52
2022/01/30 04:27:22;;;;;;;228.40;66.28;;;;;;;;;;5093360;28;20028;-57
2022/01/30 04:29:48;;;;;;;61.95;27.52;;;;;;;;;;5093868;28;20071;-52
2022/01/30 04:32:15;;;;;;;50.38;23.98;;;;;;;;;;5094266;28;20039;-54
2022/01/30 04:34:44;;;;;;;55.03;27.05;;;;;;;;;;5092687;28;20024;-55
2022/01/30 04:37:21;;;;;;;127.85;42.20;;;;;;;;;;5093608;28;20103;-55
2022/01/30 05:07:46;;;;;;;44.28;21.10;;;;;;;;;;5093426;28;19904;-51
2022/01/30 05:09:41;;;;;;;49.55;22.98;;;;;;;;;;5079227;28;20479;-52
2022/01/30 05:12:07;;;;;;;45.85;21.67;;;;;;;;;;5093343;28;20479;-52
2022/01/30 05:14:34;;;;;;;89.78;38.67;;;;;;;;;;5092742;28;20032;-51
2022/01/30 05:17:01;;;;;;;53.33;27.13;;;;;;;;;;5092960;28;20368;-57
2022/01/30 05:19:27;;;;;;;47.95;26.35;;;;;;;;;;5093290;28;20515;-55
2022/01/30 05:21:54;;;;;;;60.03;27.60;;;;;;;;;;5075597;28;20084;-52
2022/01/30 05:24:21;;;;;;;73.03;35.97;;;;;;;;;;5073167;28;20468;-56
2022/01/30 05:26:48;;;;;;;82.63;39.25;;;;;;;;;;5072990;28;20043;-57
2022/01/30 05:29:15;;;;;;;94.28;45.92;;;;;;;;;;5073087;28;20036;-55
2022/01/30 05:31:41;;;;;;;100.90;50.33;;;;;;;;;;5076584;28;20042;-52
2022/01/30 05:34:08;;;;;;;95.68;48.35;;;;;;;;;;5076276;28;20028;-50
2022/01/30 05:36:35;;;;;;;121.32;55.15;;;;;;;;;;5076237;28;20091;-55
2022/01/30 05:39:02;;;;;;;109.43;54.15;;;;;;;;;;5076184;28;20069;-55
2022/01/30 05:41:28;;;;;;;123.97;57.30;;;;;;;;;;5076381;28;20043;-54
2022/01/30 05:43:58;;;;;;;122.93;57.53;;;;;;;;;;5075741;28;20028;-52
2022/01/30 05:46:36;;;;;;;130.63;62.45;;;;;;;;;;5076383;28;20025;-51
2022/01/30 05:49:03;;;;;;;126.55;58.83;;;;;;;;;;5076354;28;20052;-53
2022/01/30 05:51:29;;;;;;;102.25;48.22;;;;;;;;;;5075783;28;20067;-53
2022/01/30 05:53:55;;;;;;;82.10;39.80;;;;;;;;;;5076489;28;20031;-56
2022/01/30 05:56:22;;;;;;;75.45;37.17;;;;;;;;;;5076179;28;20029;-54
2022/01/30 05:58:48;;;;;;;78.85;37.95;;;;;;;;;;5075658;28;20025;-54
2022/01/30 06:01:14;;;;;;;68.93;34.08;;;;;;;;;;5075762;28;20430;-52
2022/01/30 06:03:40;;;;;;;69.95;35.38;;;;;;;;;;5075756;28;20056;-54
2022/01/30 06:06:08;;;;;;;69.32;31.55;;;;;;;;;;5075502;28;20028;-55
2022/01/30 06:08:44;;;;;;;65.90;30.27;;;;;;;;;;5075908;28;20024;-51
2022/01/30 06:11:11;;;;;;;61.88;28.10;;;;;;;;;;5075793;28;20021;-55
2022/01/30 06:13:37;;;;;;;50.55;25.50;;;;;;;;;;5075871;28;20035;-51
2022/01/30 06:16:04;;;;;;;55.72;28.35;;;;;;;;;;5075781;28;20017;-54
2022/01/30 06:18:30;;;;;;;48.20;23.95;;;;;;;;;;5075183;28;20087;-55
2022/01/30 06:20:56;;;;;;;40.75;20.77;;;;;;;;;;5075323;28;20021;-57
2022/01/30 06:23:26;;;;;;;44.90;23.50;;;;;;;;;;5075177;28;20037;-57
2022/01/30 06:25:56;;;;;;;42.55;23.38;;;;;;;;;;5083160;28;20054;-56
2022/01/30 06:28:22;;;;;;;56.00;26.55;;;;;;;;;;5095714;28;20024;-56
2022/01/30 06:30:48;;;;;;;50.95;25.67;;;;;;;;;;5095710;28;20020;-55
2022/01/30 06:33:15;;;;;;;59.80;28.30;;;;;;;;;;5095379;28;20055;-55
2022/01/30 06:35:41;;;;;;;60.20;28.35;;;;;;;;;;5095323;28;20031;-49
2022/01/30 06:38:07;;;;;;;131.35;64.10;;;;;;;;;;5095241;28;20039;-53
2022/01/30 06:40:33;;;;;;;143.63;66.15;;;;;;;;;;5095173;28;20024;-56
2022/01/30 06:43:00;;;;;;;160.27;74.43;;;;;;;;;;5095334;28;20035;-54
2022/01/30 06:45:27;;;;;;;170.98;78.68;;;;;;;;;;5095730;28;20048;-53
2022/01/30 06:47:53;;;;;;;361.33;152.63;;;;;;;;;;5094740;28;20438;-54
2022/01/30 06:50:19;;;;;;;256.20;111.20;;;;;;;;;;5095241;28;20059;-55
2022/01/30 06:52:46;;;;;;;381.95;180.15;;;;;;;;;;5094632;28;20151;-50
2022/01/30 06:55:12;;;;;;;165.88;79.00;;;;;;;;;;5095229;28;20098;-56
2022/01/30 06:57:45;;;;;;;132.70;66.93;;;;;;;;;;5094834;28;20038;-55
2022/01/30 07:00:12;;;;;;;144.25;74.30;;;;;;;;;;5094648;28;20042;-55
2022/01/30 07:02:38;;;;;;;103.15;55.20;;;;;;;;;;5094999;28;20090;-56
2022/01/30 07:05:05;;;;;;;95.28;48.30;;;;;;;;;;5094809;28;20405;-55
2022/01/30 07:07:31;;;;;;;100.65;51.90;;;;;;;;;;5094642;28;20032;-49
2022/01/30 07:09:57;;;;;;;137.40;70.70;;;;;;;;;;5094907;28;20024;-53
2022/01/30 07:12:23;;;;;;;160.73;83.82;;;;;;;;;;5094602;28;20032;-53
2022/01/30 07:14:49;;;;;;;133.88;66.75;;;;;;;;;;5087993;28;20389;-56
2022/01/30 07:17:16;;;;;;;132.48;68.60;;;;;;;;;;5094771;28;20016;-54
2022/01/30 07:19:42;;;;;;;119.72;59.25;;;;;;;;;;5074889;28;20051;-55
2022/01/30 07:22:08;;;;;;;113.70;56.25;;;;;;;;;;5073478;28;20404;-49
2022/01/30 07:24:34;;;;;;;110.55;57.22;;;;;;;;;;5074278;28;20029;-51
2022/01/30 07:27:00;;;;;;;115.43;57.78;;;;;;;;;;5074282;28;20031;-54
2022/01/30 07:29:26;;;;;;;117.82;60.90;;;;;;;;;;5073761;28;20472;-57
2022/01/30 07:31:53;;;;;;;134.70;68.28;;;;;;;;;;5089247;28;20035;-56
2022/01/30 07:34:21;;;;;;;165.35;81.65;;;;;;;;;;5093863;28;20043;-53
2022/01/30 07:36:47;;;;;;;167.82;80.63;;;;;;;;;;5088881;28;20058;-53
2022/01/30 07:39:17;;;;;;;124.90;63.58;;;;;;;;;;5085306;28;20032;-55
2022/01/30 07:41:43;;;;;;;106.50;54.15;;;;;;;;;;5075140;28;20038;-55
2022/01/30 07:44:10;;;;;;;93.30;49.50;;;;;;;;;;5073898;28;20038;-55
2022/01/30 07:46:36;;;;;;;95.15;46.30;;;;;;;;;;5073962;28;20035;-55
2022/01/30 07:49:03;;;;;;;124.65;64.07;;;;;;;;;;5080493;28;20522;-53
2022/01/30 07:51:29;;;;;;;146.55;77.10;;;;;;;;;;5084484;28;20027;-51
2022/01/30 07:53:55;;;;;;;130.32;63.42;;;;;;;;;;5089978;28;20381;-54
2022/01/30 07:56:23;;;;;;;101.95;52.97;;;;;;;;;;5082016;28;20073;-52
2022/01/30 07:58:49;;;;;;;91.95;44.15;;;;;;;;;;5073463;28;20469;-53
2022/01/30 08:01:18;;;;;;;131.43;65.93;;;;;;;;;;5073665;28;20024;-58
2022/01/30 08:03:44;;;;;;;132.88;69.95;;;;;;;;;;5073078;28;20141;-51
2022/01/30 08:06:10;;;;;;;81.07;43.53;;;;;;;;;;5073465;28;20031;-52
2022/01/30 08:08:36;;;;;;;52.20;26.38;;;;;;;;;;5074110;28;20021;-52
2022/01/30 08:11:03;;;;;;;50.05;26.02;;;;;;;;;;5087729;28;20035;-51
2022/01/30 08:13:29;;;;;;;42.03;20.48;;;;;;;;;;5078292;28;20024;-52
2022/01/30 08:15:55;;;;;;;43.92;23.05;;;;;;;;;;5079980;28;20099;-54
2022/01/30 08:18:21;;;;;;;29.58;17.45;;;;;;;;;;5091404;28;20113;-55
2022/01/30 08:20:47;;;;;;;28.25;15.90;;;;;;;;;;5093530;28;20043;-54
2022/01/30 08:23:16;;;;;;;22.38;12.60;;;;;;;;;;5093487;28;20361;-52
2022/01/30 08:25:42;;;;;;;18.95;9.80;;;;;;;;;;5092796;28;20107;-49
2022/01/30 08:28:08;;;;;;;28.00;16.17;;;;;;;;;;5092675;28;20016;-54
2022/01/30 08:30:35;;;;;;;31.02;14.90;;;;;;;;;;5077630;28;20051;-55
2022/01/30 08:33:02;;;;;;;27.38;14.20;;;;;;;;;;5075663;28;20048;-54
2022/01/30 08:35:29;;;;;;;21.85;12.23;;;;;;;;;;5081422;28;20047;-50
2022/01/30 08:37:56;;;;;;;23.67;13.10;;;;;;;;;;5072756;28;20096;-55
2022/01/30 08:40:23;;;;;;;25.23;13.57;;;;;;;;;;5082448;28;20126;-55
2022/01/30 08:42:49;;;;;;;22.02;10.88;;;;;;;;;;5093169;28;20480;-48
2022/01/30 08:45:16;;;;;;;18.77;9.65;;;;;;;;;;5093322;28;20024;-52
2022/01/30 08:47:43;;;;;;;18.02;10.30;;;;;;;;;;5093025;28;20024;-52
2022/01/30 08:50:10;;;;;;;22.52;11.00;;;;;;;;;;5093239;28;20032;-51
2022/01/30 08:52:36;;;;;;;19.85;11.43;;;;;;;;;;5093156;28;20016;-52
2022/01/30 08:55:07;;;;;;;16.02;9.35;;;;;;;;;;5093558;28;20044;-55
2022/01/30 08:57:34;;;;;;;18.88;10.57;;;;;;;;;;5093106;28;20073;-53
2022/01/30 09:00:00;;;;;;;22.75;10.85;;;;;;;;;;5091423;28;20429;-52
2022/01/30 09:02:41;;;;;;;18.55;9.32;;;;;;;;;;5087186;28;20032;-53
2022/01/30 09:05:08;;;;;;;19.85;8.60;;;;;;;;;;5090005;28;20024;-49
2022/01/30 09:07:34;;;;;;;13.23;6.80;;;;;;;;;;5093496;28;20024;-53
2022/01/30 09:10:00;;;;;;;13.80;7.45;;;;;;;;;;5095287;28;20021;-55
2022/01/30 09:12:27;;;;;;;11.68;7.28;;;;;;;;;;5084325;28;20025;-58
2022/01/30 09:15:03;;;;;;;11.85;6.70;;;;;;;;;;5088410;28;20517;-57
2022/01/30 09:17:35;;;;;;;16.80;9.07;;;;;;;;;;5093837;28;20379;-52
2022/01/30 09:20:03;;;;;;;17.77;8.50;;;;;;;;;;5094547;28;20070;-54
2022/01/30 09:22:29;;;;;;;13.30;7.72;;;;;;;;;;5091475;28;20049;-53
2022/01/30 09:24:55;;;;;;;15.73;8.75;;;;;;;;;;5094891;28;20107;-56
2022/01/30 09:27:22;;;;;;;14.48;9.05;;;;;;;;;;5095299;28;20020;-56
2022/01/30 09:29:48;;;;;;;17.88;8.77;;;;;;;;;;5096150;28;20480;-51
2022/01/30 09:32:14;;;;;;;13.10;7.35;;;;;;;;;;5091704;28;20385;-54
2022/01/30 09:34:40;;;;;;;15.27;8.77;;;;;;;;;;5096059;28;20445;-57
2022/01/30 09:37:07;;;;;;;23.05;10.43;;;;;;;;;;5095359;28;20074;-51
2022/01/30 09:39:33;;;;;;;15.25;9.80;;;;;;;;;;5096642;28;20354;-53
2022/01/30 09:42:00;;;;;;;19.27;8.90;;;;;;;;;;5095989;28;20081;-53
2022/01/30 09:44:27;;;;;;;26.20;12.13;;;;;;;;;;5095411;28;20043;-53
2022/01/30 09:46:53;;;;;;;14.32;7.15;;;;;;;;;;5095397;28;20020;-52
2022/01/30 09:49:22;;;;;;;18.50;9.18;;;;;;;;;;5094971;28;20020;-56
2022/01/30 09:51:48;;;;;;;20.08;11.20;;;;;;;;;;5095073;28;20024;-52
2022/01/30 09:54:19;;;;;;;15.88;7.80;;;;;;;;;;5095189;28;20039;-61
2022/01/30 09:56:45;;;;;;;;;;;;;;;;;;5095774;28;20114;-51
2022/01/30 09:59:11;;;;;;;16.05;8.63;;;;;;;;;;5095963;28;19904;-52
2022/01/30 10:01:38;;;;;;;19.50;9.95;;;;;;;;;;5094565;28;20030;-54
2022/01/30 10:04:05;;;;;;;13.73;7.70;;;;;;;;;;5094793;28;20497;-58
2022/01/30 10:06:50;;;;;;;17.17;10.05;;;;;;;;;;5092861;28;20030;-56
2022/01/30 10:09:24;;;;;;;12.10;6.72;;;;;;;;;;5074081;28;21067;-52
2022/01/30 10:12:00;;;;;;;43.80;23.92;;;;;;;;;;5091589;28;20095;-50
2022/01/30 10:14:27;;;;;;;21.13;12.52;;;;;;;;;;5093189;28;20012;-55
2022/01/30 10:17:11;;;;;;;21.55;11.13;;;;;;;;;;5091800;28;20483;-54
2022/01/30 10:19:42;;;;;;;28.13;17.35;;;;;;;;;;5092796;28;20023;-52
2022/01/30 10:22:09;;;;;;;25.63;14.20;;;;;;;;;;5092647;28;20048;-60
2022/01/30 10:24:40;;;;;;;23.88;14.05;;;;;;;;;;5093048;28;20024;-55
2022/01/30 10:27:20;;;;;;;23.60;14.50;;;;;;;;;;5090934;28;20059;-50
2022/01/30 10:29:56;;;;;;;28.67;15.13;;;;;;;;;;5092424;28;20048;-50
2022/01/30 10:32:23;;;;;;;25.00;14.38;;;;;;;;;;5092848;28;20016;-53
2022/01/30 10:34:58;;;;;;;22.90;15.57;;;;;;;;;;5093918;28;20030;-53
2022/01/30 10:37:35;;;;;;;19.17;14.65;;;;;;;;;;5090737;28;20020;-56
2022/01/30 10:40:34;;;;;;;26.73;17.13;;;;;;;;;;5073750;28;20028;-60
2022/01/30 10:43:00;;;;;;;71.50;53.28;;;;;;;;;;5073269;28;20044;-52
2022/01/30 10:45:27;;;;;;;30.70;21.45;;;;;;;;;;5092007;28;20020;-58
2022/01/30 10:48:08;;;;;;;28.85;19.08;;;;;;;;;;5092445;28;20461;-51
2022/01/30 10:50:35;;;;;;;36.45;23.77;;;;;;;;;;5092198;28;20055;-51
2022/01/30 10:53:03;;;;;;;27.00;14.25;;;;;;;;;;5091866;28;20024;-55
2022/01/30 10:55:38;;;;;;;23.50;14.57;;;;;;;;;;5092348;28;20121;-56
2022/01/30 10:58:05;;;;;;;17.42;10.98;;;;;;;;;;5090883;28;20050;-54
2022/01/30 11:00:38;;;;;;;21.45;11.77;;;;;;;;;;5090439;28;20395;-55
2022/01/30 11:03:04;;;;;;;13.95;8.00;;;;;;;;;;5090886;28;20527;-52
2022/01/30 11:05:33;;;;;;;16.38;9.15;;;;;;;;;;5088322;28;20027;-57
2022/01/30 11:07:59;;;;;;;16.50;9.23;;;;;;;;;;5090371;28;20028;-51
2022/01/30 11:10:27;;;;;;;17.42;9.77;;;;;;;;;;5091965;28;20056;-48
2022/01/30 11:13:08;;;;;;;18.70;10.77;;;;;;;;;;5091816;28;20036;-54
2022/01/30 11:15:43;;;;;;;21.42;11.88;;;;;;;;;;5091744;28;20074;-57
2022/01/30 11:18:13;;;;;;;20.65;11.50;;;;;;;;;;5091819;28;20031;-51
2022/01/30 11:20:39;;;;;;;26.02;12.40;;;;;;;;;;5091293;28;20032;-52
2022/01/30 11:23:06;;;;;;;27.77;13.07;;;;;;;;;;5091551;28;20055;-55
2022/01/30 11:25:36;;;;;;;28.27;13.60;;;;;;;;;;5091475;28;20020;-54
2022/01/30 11:28:04;;;;;;;17.85;11.05;;;;;;;;;;5089464;28;20020;-55
2022/01/30 11:30:34;;;;;;;19.23;10.40;;;;;;;;;;5090071;28;20384;-54
2022/01/30 11:33:00;;;;;;;16.60;8.75;;;;;;;;;;5091650;28;20028;-54
2022/01/30 11:35:27;;;;;;;11.15;8.00;;;;;;;;;;5091742;28;20017;-53
2022/01/30 11:37:55;;;;;;;14.60;9.45;;;;;;;;;;5092994;28;20466;-56
2022/01/30 11:40:22;;;;;;;10.48;7.78;;;;;;;;;;5091190;28;20383;-56
2022/01/30 11:42:49;;;;;;;16.38;9.35;;;;;;;;;;5092696;28;20028;-51
2022/01/30 11:45:17;;;;;;;14.80;9.38;;;;;;;;;;5094579;28;20027;-50
2022/01/30 11:47:44;;;;;;;13.48;8.75;;;;;;;;;;5093256;28;20141;-52
2022/01/30 11:50:11;;;;;;;15.48;9.63;;;;;;;;;;5093970;28;20028;-57
2022/01/30 11:52:57;;;;;;;23.83;12.02;;;;;;;;;;5076514;28;20441;-56
2022/01/30 11:55:49;;;;;;;14.63;8.95;;;;;;;;;;5093565;28;20016;-51
2022/01/30 11:58:30;;;;;;;15.45;8.95;;;;;;;;;;5082725;28;20511;-57
2022/01/30 12:00:57;;;;;;;16.92;9.35;;;;;;;;;;5094340;28;20356;-51
2022/01/30 12:03:23;;;;;;;17.02;9.52;;;;;;;;;;5093915;28;20027;-52
2022/01/30 12:05:50;;;;;;;15.48;8.15;;;;;;;;;;5094513;28;20356;-55
2022/01/30 12:08:35;;;;;;;18.85;8.43;;;;;;;;;;5093329;28;20472;-51
2022/01/30 12:11:01;;;;;;;18.98;9.85;;;;;;;;;;5093605;28;20537;-54
2022/01/30 12:13:43;;;;;;;18.65;9.15;;;;;;;;;;5093467;28;20024;-53
2022/01/30 12:16:29;;;;;;;23.38;10.20;;;;;;;;;;5093457;28;20111;-55
2022/01/30 12:18:55;;;;;;;15.25;8.55;;;;;;;;;;5093908;28;20457;-56
2022/01/30 12:21:27;;;;;;;18.23;10.48;;;;;;;;;;5093851;28;20368;-52
2022/01/30 12:23:53;;;;;;;14.07;8.55;;;;;;;;;;5093627;28;20054;-54
2022/01/30 12:26:20;;;;;;;17.33;8.95;;;;;;;;;;5093633;28;20012;-52
2022/01/30 12:28:53;;;;;;;12.32;6.90;;;;;;;;;;5093134;28;20472;-54
2022/01/30 12:31:38;;;;;;;12.95;7.43;;;;;;;;;;5093673;28;20024;-53
2022/01/30 12:34:08;;;;;;;12.15;7.05;;;;;;;;;;5094130;28;20077;-56
2022/01/30 12:36:36;;;;;;;17.70;9.23;;;;;;;;;;5093288;28;20020;-55
2022/01/30 12:39:08;;;;;;;14.57;8.00;;;;;;;;;;5095403;28;20122;-57
2022/01/30 12:41:35;;;;;;;21.83;10.30;;;;;;;;;;5097054;28;20039;-51
2022/01/30 12:44:03;;;;;;;26.55;13.68;;;;;;;;;;5097147;28;20020;-57
2022/01/30 12:46:31;;;;;;;18.00;10.35;;;;;;;;;;5097646;28;20092;-51
2022/01/30 12:49:02;;;;;;;22.25;12.73;;;;;;;;;;5097654;28;20095;-52
2022/01/30 12:51:28;;;;;;;17.85;8.60;;;;;;;;;;5096839;28;20032;-56
2022/01/30 12:53:55;;;;;;;17.13;9.77;;;;;;;;;;5097182;28;20063;-50
2022/01/30 12:56:22;;;;;;;19.80;9.98;;;;;;;;;;5097116;28;20020;-52
2022/01/30 12:58:49;;;;;;;24.65;12.90;;;;;;;;;;5097104;28;20012;-52
2022/01/30 13:01:16;;;;;;;27.80;12.52;;;;;;;;;;5097133;28;20016;-52
2022/01/30 13:03:42;;;;;;;25.55;13.70;;;;;;;;;;5096674;28;20487;-53
2022/01/30 13:06:09;;;;;;;26.45;14.40;;;;;;;;;;5096735;28;20069;-53
2022/01/30 13:08:48;;;;;;;25.80;15.25;;;;;;;;;;5097317;28;20016;-54
2022/01/30 13:11:19;;;;;;;35.38;21.63;;;;;;;;;;5097161;28;20020;-52
2022/01/30 13:13:55;;;;;;;34.25;17.70;;;;;;;;;;5096941;28;20122;-53
2022/01/30 13:16:25;;;;;;;42.58;23.73;;;;;;;;;;5096478;28;20388;-52
2022/01/30 13:18:51;;;;;;;40.63;23.58;;;;;;;;;;5095763;28;20028;-50
2022/01/30 13:21:28;;;;;;;42.83;23.60;;;;;;;;;;5096538;28;20028;-53
2022/01/30 13:23:54;;;;;;;45.78;24.25;;;;;;;;;;5096375;28;20048;-51
2022/01/30 13:26:34;;;;;;;42.97;24.55;;;;;;;;;;5096074;28;20066;-55
2022/01/30 13:29:01;;;;;;;45.67;25.23;;;;;;;;;;5095192;28;20020;-52
2022/01/30 13:31:27;;;;;;;30.33;16.58;;;;;;;;;;5096443;28;20209;-48
2022/01/30 13:34:12;;;;;;;35.22;18.95;;;;;;;;;;5096363;28;20468;-51
2022/01/30 13:36:39;;;;;;;33.15;17.60;;;;;;;;;;5096499;28;20103;-54
2022/01/30 13:39:08;;;;;;;31.35;18.40;;;;;;;;;;5096424;28;20028;-55
2022/01/30 13:41:44;;;;;;;40.20;23.00;;;;;;;;;;5096415;28;20051;-51
2022/01/30 13:44:22;;;;;;;42.95;24.50;;;;;;;;;;5096341;28;20392;-50
2022/01/30 13:47:02;;;;;;;54.60;27.67;;;;;;;;;;5094988;28;20422;-54
2022/01/30 13:49:30;;;;;;;50.97;27.27;;;;;;;;;;5096066;28;20490;-51
2022/01/30 13:52:09;;;;;;;51.22;28.75;;;;;;;;;;5095053;28;20032;-53
2022/01/30 13:54:37;;;;;;;64.55;36.20;;;;;;;;;;5095470;28;20369;-51
2022/01/30 13:57:10;;;;;;;72.30;41.72;;;;;;;;;;5094146;28;20043;-51
2022/01/30 13:59:37;;;;;;;73.88;43.83;;;;;;;;;;5095970;28;20016;-56
2022/01/30 14:02:06;;;;;;;84.10;47.10;;;;;;;;;;5096264;28;20020;-53
2022/01/30 14:04:35;;;;;;;62.03;35.55;;;;;;;;;;5096067;28;20467;-54
2022/01/30 14:07:01;;;;;;;74.13;44.60;;;;;;;;;;5095874;28;20031;-57
2022/01/30 14:09:38;;;;;;;75.43;41.63;;;;;;;;;;5095735;28;20032;-55
2022/01/30 14:12:05;;;;;;;91.03;50.80;;;;;;;;;;5094797;28;20027;-52
2022/01/30 14:14:36;;;;;;;106.70;57.53;;;;;;;;;;5093377;28;20085;-51
2022/01/30 14:17:03;;;;;;;100.13;53.53;;;;;;;;;;5095753;28;20045;-57
2022/01/30 14:19:34;;;;;;;87.38;49.65;;;;;;;;;;5095692;28;20025;-47
2022/01/30 14:22:14;;;;;;;87.18;45.28;;;;;;;;;;5094978;28;20541;-54
2022/01/30 14:25:07;;;;;;;91.72;49.08;;;;;;;;;;5095662;28;20107;-51
2022/01/30 14:27:39;;;;;;;84.85;46.20;;;;;;;;;;5091260;28;20043;-53
2022/01/30 14:30:08;;;;;;;57.50;33.70;;;;;;;;;;5095691;28;20472;-54
2022/01/30 14:32:40;;;;;;;69.38;40.08;;;;;;;;;;5095184;28;20028;-52
2022/01/30 14:35:08;;;;;;;71.72;40.17;;;;;;;;;;5095424;28;20020;-53
2022/01/30 14:37:34;;;;;;;60.70;34.60;;;;;;;;;;5096062;28;20468;-53
2022/01/30 14:40:05;;;;;;;53.95;29.42;;;;;;;;;;5094880;28;20028;-50
2022/01/30 14:42:31;;;;;;;56.67;29.85;;;;;;;;;;5094390;28;20065;-53
2022/01/30 14:44:57;;;;;;;77.40;43.13;;;;;;;;;;5095300;28;20025;-51
2022/01/30 14:47:24;;;;;;;53.97;31.88;;;;;;;;;;5094978;28;20020;-55
2022/01/30 14:49:50;;;;;;;54.53;30.30;;;;;;;;;;5094520;28;20073;-49
2022/01/30 14:52:17;;;;;;;41.17;23.40;;;;;;;;;;5094779;28;20176;-50
2022/01/30 14:54:44;;;;;;;45.28;25.25;;;;;;;;;;5094900;28;20372;-52
2022/01/30 14:57:11;;;;;;;40.78;24.88;;;;;;;;;;5094713;28;20020;-54
2022/01/30 14:59:37;;;;;;;44.67;25.65;;;;;;;;;;5093119;28;20476;-52
2022/01/30 15:02:04;;;;;;;49.22;27.70;;;;;;;;;;5092600;28;20483;-49
2022/01/30 15:04:30;;;;;;;47.95;26.63;;;;;;;;;;5093932;28;20058;-53
2022/01/30 15:06:56;;;;;;;44.47;24.67;;;;;;;;;;5094106;28;20020;-52
2022/01/30 15:09:22;;;;;;;47.10;26.23;;;;;;;;;;5094483;28;20050;-56
2022/01/30 15:11:49;;;;;;;48.17;26.70;;;;;;;;;;5094816;28;20357;-50
2022/01/30 15:14:22;;;;;;;51.20;27.38;;;;;;;;;;5094514;28;20036;-51
2022/01/30 15:16:50;;;;;;;53.72;29.65;;;;;;;;;;5093383;28;20039;-51